Anthony, Kansas
Current Conditions -  °F | °C
As of 4:10 PM on Thursday 23 Oct 2014 (Local Time) from KAVK Reporting Station
Broken Clouds Broken Clouds  
Wind Chill: 75°   Ceiling: 3300
Heat Index: 75°   Visibility: 10mi
Dew Point: 61°   Wind: 6mph
Humidity: 61%   Direction: 100°E
Pressure: 30.03"   Gusts: NA
Location:  37.15°N, 98.03°W
Report Text: KAVK 232110Z AUTO 10005KT 10SM BKN033 24/16 A3003 RMK AO2
Loading
Personal Weather Stations






























Interactive Weather Map
Tropical Storm Tracking
New forecast layout! Learn more

10-Day Weather Forecast

Advertisements
Track Severe Weather on mobile